Time;durP1;ratioP1;P1;durP2;ratioP2;P2;SDS_P1;SDS_P2;PMS_P1;PMS_P2;Temp;Humidity;BMP_temperature;BMP_pressure;BME280_temperature;BME280_humidity;BME280_pressure;Samples;Min_cycle;Max_cycle;Signal;HPM_P1;HPM_P2
2021/08/20 00:02:30;;;;;;;2.10;1.90;;;14.50;99.90;;;;;;6197250;28;20213;-75
2021/08/20 00:05:32;;;;;;;4.17;2.20;;;14.50;99.90;;;;;;6189110;28;20706;-75
2021/08/20 00:08:34;;;;;;;2.57;2.07;;;14.40;99.90;;;;;;6191083;28;20201;-74
2021/08/20 00:11:38;;;;;;;3.27;2.50;;;14.50;99.90;;;;;;6197035;28;20716;-75
2021/08/20 00:14:40;;;;;;;2.80;2.17;;;14.40;99.90;;;;;;6196598;28;20288;-74
2021/08/20 00:17:42;;;;;;;4.57;2.20;;;14.30;99.90;;;;;;6185460;28;20196;-74
2021/08/20 00:20:44;;;;;;;4.77;2.10;;;14.30;99.90;;;;;;6197657;28;20661;-74
2021/08/20 00:23:47;;;;;;;3.27;2.40;;;14.30;99.90;;;;;;6197998;28;20606;-75
2021/08/20 00:26:49;;;;;;;2.47;2.10;;;14.30;99.90;;;;;;6196688;28;20201;-77
2021/08/20 00:29:51;;;;;;;2.70;2.50;;;14.30;99.90;;;;;;6195681;28;20197;-74
2021/08/20 00:32:53;;;;;;;5.00;2.33;;;14.30;99.90;;;;;;6196873;28;20284;-74
2021/08/20 00:35:56;;;;;;;4.03;2.20;;;14.30;99.90;;;;;;6196210;28;20312;-74
2021/08/20 00:39:02;;;;;;;2.30;2.03;;;14.30;99.90;;;;;;6196335;28;20213;-74
2021/08/20 00:42:06;;;;;;;3.03;2.50;;;14.30;99.90;;;;;;6180114;28;20221;-74
2021/08/20 00:45:09;;;;;;;3.17;2.20;;;14.30;99.90;;;;;;6198007;28;20197;-74
2021/08/20 00:48:12;;;;;;;2.27;2.07;;;14.10;99.90;;;;;;6196381;28;20299;-74
2021/08/20 00:51:24;;;;;;;3.90;2.60;;;14.10;99.90;;;;;;6196377;28;20201;-74
2021/08/20 00:54:26;;;;;;;3.17;2.30;;;14.10;99.90;;;;;;6196479;28;20217;-74
2021/08/20 00:57:29;;;;;;;2.77;2.43;;;14.00;99.90;;;;;;6196578;28;20251;-75
2021/08/20 01:00:31;;;;;;;3.43;2.30;;;14.00;99.90;;;;;;6188403;28;20209;-74
2021/08/20 01:03:36;;;;;;;3.57;2.40;;;14.00;99.90;;;;;;6188421;28;20197;-74
2021/08/20 01:06:40;;;;;;;3.37;2.63;;;14.00;99.90;;;;;;6195897;28;20209;-75
2021/08/20 01:09:46;;;;;;;3.10;2.30;;;14.00;99.90;;;;;;6197437;28;20224;-74
2021/08/20 01:12:48;;;;;;;2.77;2.10;;;14.00;99.90;;;;;;6195953;28;20194;-74
2021/08/20 01:15:55;;;;;;;3.47;2.07;;;14.00;99.90;;;;;;6181530;28;20190;-75
2021/08/20 01:18:58;;;;;;;2.83;2.40;;;14.00;99.90;;;;;;6197391;28;20205;-75
2021/08/20 01:22:03;;;;;;;2.67;2.30;;;14.00;99.90;;;;;;6196076;28;20194;-74
2021/08/20 01:25:08;;;;;;;3.80;2.47;;;13.90;99.90;;;;;;6196352;28;20208;-75
2021/08/20 01:28:10;;;;;;;4.23;2.47;;;13.90;99.90;;;;;;6195743;28;20202;-75
2021/08/20 01:31:16;;;;;;;2.80;2.40;;;13.90;99.90;;;;;;6195837;28;20712;-74
2021/08/20 01:34:19;;;;;;;2.77;2.30;;;13.90;99.90;;;;;;6195760;28;20201;-75
2021/08/20 01:37:25;;;;;;;2.50;2.30;;;13.90;99.90;;;;;;6195827;28;20288;-74
2021/08/20 01:40:29;;;;;;;3.30;2.73;;;13.90;99.90;;;;;;6197005;28;20220;-74
2021/08/20 01:43:32;;;;;;;2.33;2.13;;;13.90;99.90;;;;;;6199896;28;20217;-75
2021/08/20 01:46:35;;;;;;;2.73;2.27;;;13.90;99.90;;;;;;6200268;28;20212;-75
2021/08/20 01:49:41;;;;;;;4.37;2.40;;;13.90;99.90;;;;;;6199687;28;20193;-75
2021/08/20 01:52:43;;;;;;;2.83;2.13;;;13.80;99.90;;;;;;6200287;28;20205;-74
2021/08/20 01:55:46;;;;;;;3.00;2.07;;;13.80;99.90;;;;;;6199710;28;20205;-74
2021/08/20 01:58:50;;;;;;;5.23;2.33;;;13.80;99.90;;;;;;6200074;28;20219;-75
2021/08/20 02:02:03;;;;;;;2.80;2.10;;;13.80;99.90;;;;;;6200114;28;20244;-75
2021/08/20 02:05:07;;;;;;;2.83;2.53;;;13.80;99.90;;;;;;6199640;28;20224;-75
2021/08/20 02:08:09;;;;;;;2.67;2.47;;;13.70;99.90;;;;;;6200007;28;20203;-75
2021/08/20 02:11:12;;;;;;;3.13;2.73;;;13.70;99.90;;;;;;6199319;28;20208;-74
2021/08/20 02:14:21;;;;;;;2.70;2.50;;;13.60;99.90;;;;;;6199680;28;20196;-75
2021/08/20 02:17:24;;;;;;;3.60;2.40;;;13.60;99.90;;;;;;6183266;28;20662;-75
2021/08/20 02:20:26;;;;;;;2.60;2.23;;;13.60;99.90;;;;;;6199060;28;20272;-75
2021/08/20 02:23:31;;;;;;;2.90;2.63;;;13.60;99.90;;;;;;6199479;28;20209;-75
2021/08/20 02:26:36;;;;;;;2.70;2.50;;;13.60;99.90;;;;;;6199184;28;20271;-74
2021/08/20 02:29:39;;;;;;;2.97;2.63;;;13.50;99.90;;;;;;6199152;28;20209;-74
2021/08/20 02:32:41;;;;;;;4.33;2.43;;;13.50;99.90;;;;;;6198982;28;20205;-75
2021/08/20 02:35:55;;;;;;;3.27;2.60;;;13.50;99.90;;;;;;6199500;28;20586;-75
2021/08/20 02:38:58;;;;;;;3.30;2.57;;;13.40;99.90;;;;;;6198912;28;20220;-75
2021/08/20 02:42:01;;;;;;;2.63;2.40;;;13.30;99.90;;;;;;6198436;28;20322;-74
2021/08/20 02:45:05;;;;;;;2.80;2.57;;;13.30;99.90;;;;;;6199117;28;20601;-74
2021/08/20 02:48:07;;;;;;;2.97;2.67;;;13.30;99.90;;;;;;6198618;28;20600;-75
2021/08/20 02:51:11;;;;;;;3.57;2.90;;;13.30;99.90;;;;;;6198761;28;20212;-75
2021/08/20 02:54:14;;;;;;;4.63;3.23;;;13.30;99.90;;;;;;6199522;28;20201;-75
2021/08/20 02:57:16;;;;;;;3.00;2.80;;;13.30;99.90;;;;;;6198364;28;20600;-75
2021/08/20 03:00:25;;;;;;;3.63;2.97;;;13.30;99.90;;;;;;6198605;28;20292;-74
2021/08/20 03:03:32;;;;;;;3.57;2.80;;;13.40;99.90;;;;;;6199237;28;20188;-75
2021/08/20 03:06:37;;;;;;;4.50;3.03;;;13.40;99.90;;;;;;6198752;28;20295;-74
2021/08/20 03:09:44;;;;;;;3.10;2.80;;;13.40;99.90;;;;;;6197902;28;20279;-75
2021/08/20 03:12:48;;;;;;;2.77;2.50;;;13.40;99.90;;;;;;6198435;28;20222;-74
2021/08/20 03:15:51;;;;;;;3.03;2.63;;;13.40;99.90;;;;;;6177979;28;20201;-76
2021/08/20 03:18:54;;;;;;;2.77;2.50;;;13.40;99.90;;;;;;6197825;28;20225;-74
2021/08/20 03:21:57;;;;;;;3.33;2.67;;;13.40;99.90;;;;;;6198124;28;20208;-75
2021/08/20 03:25:01;;;;;;;6.57;2.70;;;13.40;99.90;;;;;;6197677;28;20201;-75
2021/08/20 03:28:06;;;;;;;3.73;2.33;;;13.30;99.90;;;;;;6181990;28;20194;-76
2021/08/20 03:31:13;;;;;;;2.97;2.67;;;13.20;99.90;;;;;;6182353;28;20298;-75
2021/08/20 03:34:16;;;;;;;3.57;2.40;;;13.20;99.90;;;;;;6197648;28;20593;-74
2021/08/20 03:37:19;;;;;;;3.47;3.00;;;13.20;99.90;;;;;;6197773;28;20799;-75
2021/08/20 03:40:24;;;;;;;4.03;2.67;;;13.10;99.90;;;;;;6198576;28;20291;-75
2021/08/20 03:43:32;;;;;;;4.50;2.63;;;13.10;99.90;;;;;;6197557;28;20259;-76
2021/08/20 03:46:46;;;;;;;3.03;2.63;;;13.00;99.90;;;;;;6186107;28;20596;-75
2021/08/20 03:49:49;;;;;;;3.17;2.87;;;13.00;99.90;;;;;;6173492;28;20194;-74
2021/08/20 03:52:51;;;;;;;2.93;2.37;;;13.10;99.90;;;;;;6194327;28;20204;-75
2021/08/20 03:55:54;;;;;;;3.60;2.30;;;13.00;99.90;;;;;;6179562;28;20203;-75
2021/08/20 03:59:17;;;;;;;3.73;2.63;;;13.00;99.90;;;;;;6163782;28;20233;-75
2021/08/20 04:02:20;;;;;;;3.50;2.67;;;13.00;99.90;;;;;;6156927;28;20633;-75
2021/08/20 04:05:23;;;;;;;2.63;2.43;;;13.00;99.90;;;;;;6173534;28;20201;-74
2021/08/20 04:08:46;;;;;;;2.70;2.50;;;12.90;99.90;;;;;;6189448;28;20534;-76
2021/08/20 04:11:48;;;;;;;9.23;3.13;;;12.90;99.90;;;;;;6174189;28;20661;-75
2021/08/20 04:15:05;;;;;;;3.40;2.47;;;12.90;99.90;;;;;;6194937;28;20192;-75
2021/08/20 04:18:08;;;;;;;3.30;3.00;;;12.90;99.90;;;;;;6175326;28;20209;-75
2021/08/20 04:21:10;;;;;;;3.13;2.53;;;12.90;99.90;;;;;;6180450;28;20731;-74
2021/08/20 04:24:18;;;;;;;5.07;2.60;;;13.00;99.90;;;;;;6196200;28;20192;-75
2021/08/20 04:27:23;;;;;;;2.87;2.67;;;13.10;99.90;;;;;;6196395;28;20239;-75
2021/08/20 04:30:34;;;;;;;4.93;2.73;;;13.10;99.90;;;;;;6196092;28;20199;-75
2021/08/20 04:33:55;;;;;;;3.30;2.87;;;13.10;99.90;;;;;;6196149;28;20668;-75
2021/08/20 04:37:14;;;;;;;2.67;2.37;;;13.10;99.90;;;;;;6179205;28;20204;-76
2021/08/20 04:40:30;;;;;;;3.00;2.70;;;13.20;99.90;;;;;;6187905;28;20602;-75
2021/08/20 04:43:50;;;;;;;3.43;2.47;;;13.20;99.90;;;;;;6172015;28;20201;-75
2021/08/20 04:47:11;;;;;;;5.53;2.60;;;13.30;99.90;;;;;;6194359;28;20209;-76
2021/08/20 04:50:45;;;;;;;2.87;2.67;;;13.30;99.90;;;;;;6174736;28;20266;-75
2021/08/20 04:53:59;;;;;;;4.13;2.37;;;13.30;99.90;;;;;;6195731;28;20204;-75
2021/08/20 04:57:14;;;;;;;3.10;2.63;;;13.40;99.90;;;;;;6195956;28;20680;-74
2021/08/20 05:00:17;;;;;;;3.73;2.80;;;13.40;99.90;;;;;;6197017;28;20223;-75
2021/08/20 05:03:21;;;;;;;3.03;2.43;;;13.40;99.90;;;;;;6195347;28;20200;-75
2021/08/20 05:06:24;;;;;;;2.60;2.40;;;13.40;99.90;;;;;;6197178;28;20184;-75
2021/08/20 05:09:27;;;;;;;2.60;2.40;;;13.40;99.90;;;;;;6195328;28;20234;-75
2021/08/20 05:12:29;;;;;;;2.40;2.20;;;13.40;99.90;;;;;;6197055;28;20280;-75
2021/08/20 05:15:32;;;;;;;2.50;2.30;;;13.40;99.90;;;;;;6197161;28;20205;-75
2021/08/20 05:18:34;;;;;;;2.83;2.40;;;13.40;99.90;;;;;;6183525;28;20297;-75
2021/08/20 05:21:36;;;;;;;5.10;2.93;;;13.40;99.90;;;;;;6191377;28;20212;-75
2021/08/20 05:24:39;;;;;;;4.70;2.90;;;13.50;99.90;;;;;;6201407;28;20264;-75
2021/08/20 05:27:41;;;;;;;3.20;2.90;;;13.50;99.90;;;;;;6201641;28;20322;-75
2021/08/20 05:30:43;;;;;;;2.70;2.50;;;13.50;99.90;;;;;;6201032;28;20219;-77
2021/08/20 05:33:46;;;;;;;5.80;2.80;;;13.60;99.90;;;;;;6200980;28;20641;-74
2021/08/20 05:36:48;;;;;;;3.07;2.77;;;13.70;99.90;;;;;;6201560;28;20794;-76
2021/08/20 05:39:50;;;;;;;2.90;2.57;;;13.70;99.90;;;;;;6199583;28;20319;-75
2021/08/20 05:42:52;;;;;;;2.90;2.60;;;13.80;99.90;;;;;;6181945;28;20226;-76
2021/08/20 05:45:56;;;;;;;2.80;2.60;;;13.90;99.90;;;;;;6193902;28;20665;-75
2021/08/20 05:48:58;;;;;;;3.97;3.03;;;13.90;99.90;;;;;;6187854;28;20196;-75
2021/08/20 05:52:00;;;;;;;5.73;2.90;;;14.00;99.90;;;;;;6200855;28;20322;-74
2021/08/20 05:55:04;;;;;;;3.37;2.80;;;14.00;99.90;;;;;;6199444;28;20274;-75
2021/08/20 05:58:06;;;;;;;3.40;3.10;;;14.10;99.90;;;;;;6199717;28;20193;-75
2021/08/20 06:01:09;;;;;;;2.83;2.63;;;14.30;99.90;;;;;;6200426;28;20208;-76
2021/08/20 06:04:11;;;;;;;3.13;2.83;;;14.40;99.90;;;;;;6199565;28;20212;-76
2021/08/20 06:07:14;;;;;;;4.60;3.00;;;14.70;99.90;;;;;;6199435;28;20200;-75
2021/08/20 06:10:18;;;;;;;6.87;3.23;;;14.90;99.90;;;;;;6199240;28;20196;-75
2021/08/20 06:13:20;;;;;;;3.83;2.53;;;15.20;99.90;;;;;;6199060;28;20216;-76
2021/08/20 06:16:23;;;;;;;2.80;2.60;;;15.40;99.90;;;;;;6190802;28;20289;-76
2021/08/20 06:19:26;;;;;;;2.73;2.53;;;15.60;99.90;;;;;;6182220;28;20213;-76
2021/08/20 06:22:29;;;;;;;3.63;2.60;;;15.80;99.90;;;;;;6198611;28;20197;-76
2021/08/20 06:25:31;;;;;;;2.53;2.20;;;16.00;99.90;;;;;;6198940;28;20199;-75
2021/08/20 06:28:33;;;;;;;2.97;2.67;;;16.20;99.90;;;;;;6182225;28;20284;-75
2021/08/20 06:31:36;;;;;;;2.33;2.13;;;16.50;99.90;;;;;;6182558;28;20265;-76
2021/08/20 06:34:38;;;;;;;3.27;2.77;;;16.70;99.90;;;;;;6199094;28;20224;-76
2021/08/20 06:37:41;;;;;;;4.07;2.40;;;16.90;99.90;;;;;;6198481;28;20344;-76
2021/08/20 06:40:43;;;;;;;2.67;2.47;;;17.10;99.90;;;;;;6199773;28;20588;-76
2021/08/20 06:43:45;;;;;;;2.73;2.53;;;17.20;99.90;;;;;;6198413;28;20249;-76
2021/08/20 06:46:47;;;;;;;2.63;2.43;;;17.40;99.90;;;;;;6175308;28;20260;-76
2021/08/20 06:49:51;;;;;;;2.60;2.40;;;17.40;99.90;;;;;;6198357;28;20241;-76
2021/08/20 06:52:53;;;;;;;2.17;2.00;;;17.50;99.90;;;;;;6199430;28;20188;-77
2021/08/20 06:55:56;;;;;;;3.70;2.50;;;17.50;99.90;;;;;;6198282;28;20209;-76
2021/08/20 06:58:59;;;;;;;3.30;2.50;;;17.50;99.90;;;;;;6198339;28;20246;-76
2021/08/20 07:02:01;;;;;;;2.57;2.23;;;17.50;99.90;;;;;;6197855;28;20351;-76
2021/08/20 07:05:04;;;;;;;2.70;2.30;;;17.60;99.90;;;;;;6199539;28;20194;-76
2021/08/20 07:08:07;;;;;;;2.97;2.33;;;17.80;99.90;;;;;;6199094;28;20279;-76
2021/08/20 07:11:09;;;;;;;3.00;2.57;;;17.90;99.90;;;;;;6181738;28;20212;-76
2021/08/20 07:14:11;;;;;;;2.63;2.20;;;18.20;99.90;;;;;;6197468;28;20287;-76
2021/08/20 07:17:13;;;;;;;1.97;1.87;;;18.40;99.90;;;;;;6198062;28;20333;-77
2021/08/20 07:20:16;;;;;;;2.33;2.03;;;18.70;99.90;;;;;;6199088;28;20328;-75
2021/08/20 07:23:19;;;;;;;2.23;2.03;;;18.90;99.90;;;;;;6181260;28;20201;-76
2021/08/20 07:26:21;;;;;;;2.80;2.23;;;19.20;99.90;;;;;;6197837;28;20280;-76
2021/08/20 07:29:23;;;;;;;2.33;2.00;;;19.40;99.90;;;;;;6198450;28;20198;-76
2021/08/20 07:32:26;;;;;;;3.10;1.80;;;19.70;99.90;;;;;;6197560;28;20197;-76
2021/08/20 07:35:28;;;;;;;3.57;2.27;;;20.00;99.90;;;;;;6181366;28;20217;-76
2021/08/20 07:38:30;;;;;;;1.90;1.80;;;20.20;99.90;;;;;;6198342;28;20279;-76
2021/08/20 07:41:32;;;;;;;1.93;1.83;;;20.50;99.90;;;;;;6196887;28;20280;-76
2021/08/20 07:44:35;;;;;;;2.00;1.80;;;20.80;99.90;;;;;;6198161;28;20268;-76
2021/08/20 07:47:50;;;;;;;2.10;1.70;;;21.20;99.90;;;;;;6179366;28;20272;-77
2021/08/20 07:50:53;;;;;;;2.60;2.00;;;21.40;99.90;;;;;;6196434;28;20651;-77
2021/08/20 07:53:55;;;;;;;1.83;1.73;;;21.60;99.90;;;;;;6196983;28;20673;-76
2021/08/20 07:56:57;;;;;;;2.30;2.10;;;21.90;99.90;;;;;;6197136;28;20284;-76
2021/08/20 07:59:59;;;;;;;2.57;2.10;;;22.20;99.90;;;;;;6197701;28;20696;-76
2021/08/20 08:03:12;;;;;;;2.23;1.90;;;22.70;99.90;;;;;;6198174;28;20697;-76
2021/08/20 08:06:16;;;;;;;2.03;1.90;;;23.10;99.90;;;;;;6180448;28;20197;-76
2021/08/20 08:09:19;;;;;;;2.00;1.80;;;23.50;99.90;;;;;;6196637;28;20307;-76
2021/08/20 08:12:21;;;;;;;3.30;1.93;;;23.70;99.90;;;;;;6197873;28;20196;-76
2021/08/20 08:15:24;;;;;;;2.00;1.80;;;23.80;99.90;;;;;;6179267;28;20202;-77
2021/08/20 08:18:26;;;;;;;2.20;2.00;;;23.90;99.90;;;;;;6195952;28;20213;-76
2021/08/20 08:21:29;;;;;;;2.50;2.23;;;23.90;99.90;;;;;;6195857;28;20346;-77
2021/08/20 08:24:31;;;;;;;6.93;1.87;;;24.00;99.90;;;;;;6196368;28;20336;-76
2021/08/20 08:27:52;;;;;;;3.63;2.10;;;24.00;99.90;;;;;;6196358;28;20320;-76
2021/08/20 08:30:56;;;;;;;3.97;2.50;;;24.10;99.90;;;;;;6183584;28;20293;-76
2021/08/20 08:33:58;;;;;;;2.20;2.00;;;24.10;99.90;;;;;;6172187;28;20568;-76
2021/08/20 08:37:00;;;;;;;3.83;2.33;;;24.20;99.90;;;;;;6187891;28;20213;-76
2021/08/20 08:40:03;;;;;;;2.20;2.00;;;24.20;99.90;;;;;;6156059;28;20213;-76
2021/08/20 08:43:07;;;;;;;2.73;2.17;;;24.20;99.90;;;;;;6171832;28;20550;-76
2021/08/20 08:46:12;;;;;;;3.40;2.10;;;24.30;99.90;;;;;;6156340;28;20604;-76
2021/08/20 08:49:21;;;;;;;2.53;2.33;;;24.30;99.90;;;;;;6192636;28;20646;-76
2021/08/20 08:52:23;;;;;;;2.20;2.00;;;24.40;99.90;;;;;;6195602;28;20202;-76
2021/08/20 08:55:26;;;;;;;2.50;2.30;;;24.50;99.90;;;;;;6195835;28;20213;-76
2021/08/20 08:58:28;;;;;;;3.83;2.37;;;24.40;98.70;;;;;;6196878;28;20228;-76
2021/08/20 09:01:33;;;;;;;6.10;2.60;;;24.40;98.90;;;;;;6195812;28;20211;-76
2021/08/20 09:04:36;;;;;;;2.70;2.00;;;24.50;97.90;;;;;;6195934;28;20189;-76
2021/08/20 09:07:39;;;;;;;2.43;1.93;;;24.60;98.30;;;;;;6196835;28;20221;-76
2021/08/20 09:11:13;;;;;;;2.40;2.13;;;24.90;98.80;;;;;;6197044;28;20240;-76
2021/08/20 09:14:19;;;;;;;2.30;2.10;;;25.30;94.20;;;;;;6196544;28;20190;-76
2021/08/20 09:17:33;;;;;;;4.47;2.40;;;25.50;95.40;;;;;;6174040;28;20197;-75
2021/08/20 09:20:36;;;;;;;2.07;1.80;;;25.60;94.00;;;;;;6194188;28;20210;-76
2021/08/20 09:23:39;;;;;;;3.03;2.13;;;25.50;92.30;;;;;;6195803;28;20764;-76
2021/08/20 09:26:41;;;;;;;2.93;2.20;;;25.70;91.50;;;;;;6195638;28;20271;-76
2021/08/20 09:29:59;;;;;;;3.30;2.20;;;25.90;92.60;;;;;;6195126;28;20193;-76
2021/08/20 09:33:02;;;;;;;3.13;2.60;;;26.10;90.80;;;;;;6196879;28;20650;-76
2021/08/20 09:36:19;;;;;;;2.28;2.08;;;26.30;87.20;;;;;;6196234;28;20216;-76
2021/08/20 09:39:26;;;;;;;2.08;1.88;;;26.50;90.90;;;;;;6195478;28;20190;-76
2021/08/20 09:42:29;;;;;;;2.88;2.25;;;26.80;91.50;;;;;;6195981;28;20812;-77
2021/08/20 09:45:31;;;;;;;2.80;2.42;;;27.00;90.30;;;;;;6194252;28;20202;-76
2021/08/20 09:48:47;;;;;;;2.10;1.88;;;27.10;91.60;;;;;;6173607;28;20194;-76
2021/08/20 09:51:51;;;;;;;3.03;2.20;;;27.10;90.90;;;;;;6172120;28;20265;-77
2021/08/20 09:54:57;;;;;;;3.75;2.30;;;27.10;88.10;;;;;;6185031;28;20584;-77
2021/08/20 09:58:01;;;;;;;4.82;2.08;;;27.40;89.40;;;;;;6189411;28;20194;-77
2021/08/20 10:01:04;;;;;;;2.35;2.10;;;27.60;82.00;;;;;;6195343;28;20275;-77
2021/08/20 10:04:12;;;;;;;2.58;2.10;;;27.80;82.30;;;;;;6199012;28;20700;-77
2021/08/20 10:07:17;;;;;;;2.63;2.30;;;28.20;85.40;;;;;;6200942;28;20557;-77
2021/08/20 10:10:20;;;;;;;3.33;2.03;;;28.60;80.00;;;;;;6201215;28;20256;-77
2021/08/20 10:13:24;;;;;;;3.45;2.35;;;29.00;77.30;;;;;;6200172;28;20197;-77
2021/08/20 10:16:31;;;;;;;4.57;2.75;;;29.20;75.40;;;;;;6190734;28;20198;-77
2021/08/20 10:19:36;;;;;;;3.40;2.42;;;29.30;72.70;;;;;;6198917;28;20178;-77
2021/08/20 10:22:38;;;;;;;2.70;2.50;;;29.30;72.70;;;;;;6199146;28;20236;-77
2021/08/20 10:25:41;;;;;;;2.83;2.40;;;29.30;70.30;;;;;;6200397;28;20260;-77
2021/08/20 10:28:45;;;;;;;4.68;2.45;;;29.20;67.10;;;;;;6198829;28;20344;-77
2021/08/20 10:31:47;;;;;;;3.10;2.20;;;29.00;67.70;;;;;;6194313;28;20197;-77
2021/08/20 10:34:50;;;;;;;2.55;2.05;;;28.90;70.70;;;;;;6198802;28;20300;-77
2021/08/20 10:37:52;;;;;;;4.38;2.58;;;28.90;71.00;;;;;;6198708;28;20288;-77
2021/08/20 10:41:15;;;;;;;2.60;2.40;;;29.00;73.10;;;;;;6199615;28;20292;-77
2021/08/20 10:44:17;;;;;;;2.47;2.13;;;29.30;75.60;;;;;;6198919;28;20236;-77
2021/08/20 10:47:28;;;;;;;2.58;1.95;;;29.50;75.70;;;;;;6198429;28;20205;-77
2021/08/20 10:50:37;;;;;;;2.72;2.42;;;29.50;73.10;;;;;;6173990;28;20296;-76
2021/08/20 10:53:48;;;;;;;2.67;2.20;;;29.60;75.30;;;;;;6198195;28;20300;-77
2021/08/20 10:56:52;;;;;;;3.17;2.70;;;29.80;73.60;;;;;;6198777;28;20194;-77
2021/08/20 10:59:56;;;;;;;3.83;3.00;;;29.60;64.80;;;;;;6198194;28;20206;-78
2021/08/20 11:03:03;;;;;;;2.85;2.55;;;29.30;62.60;;;;;;6190095;28;20207;-77
2021/08/20 11:06:06;;;;;;;3.75;2.40;;;29.20;67.70;;;;;;6184989;28;20190;-77
2021/08/20 11:09:31;;;;;;;3.65;2.50;;;29.60;63.70;;;;;;6198126;28;20207;-76
2021/08/20 11:12:47;;;;;;;2.78;2.58;;;30.00;64.70;;;;;;6197235;28;20244;-77
2021/08/20 11:15:51;;;;;;;3.08;2.78;;;30.00;60.00;;;;;;6193149;28;20568;-77
2021/08/20 11:18:54;;;;;;;3.83;2.70;;;29.90;62.70;;;;;;6176534;28;20205;-78
2021/08/20 11:22:11;;;;;;;4.90;2.63;;;29.90;59.90;;;;;;6198893;28;20213;-77
2021/08/20 11:25:23;;;;;;;3.55;2.95;;;29.80;60.00;;;;;;6197931;28;20261;-77
2021/08/20 11:28:29;;;;;;;3.95;2.58;;;29.70;58.90;;;;;;6189972;28;20687;-77
2021/08/20 11:31:31;;;;;;;2.40;2.20;;;29.70;62.30;;;;;;6194878;28;20653;-77
2021/08/20 11:34:33;;;;;;;2.88;2.67;;;29.80;67.60;;;;;;6197221;28;20721;-77
2021/08/20 11:37:50;;;;;;;2.30;2.10;;;29.90;63.50;;;;;;6197380;28;20364;-77
2021/08/20 11:40:54;;;;;;;4.03;2.47;;;29.90;64.20;;;;;;6180773;28;20677;-77
2021/08/20 11:43:57;;;;;;;2.63;2.42;;;29.80;58.50;;;;;;6198696;28;20182;-77
2021/08/20 11:47:00;;;;;;;2.30;2.10;;;29.90;59.00;;;;;;6181160;28;20194;-77
2021/08/20 11:50:10;;;;;;;2.78;2.58;;;30.10;59.20;;;;;;6196563;28;20190;-77
2021/08/20 11:53:19;;;;;;;4.03;2.58;;;30.30;59.50;;;;;;6198546;28;20184;-77
2021/08/20 11:56:21;;;;;;;3.05;2.40;;;30.40;62.10;;;;;;6198100;28;20174;-77
2021/08/20 11:59:24;;;;;;;6.03;2.25;;;30.30;63.70;;;;;;6198137;28;20198;-77
2021/08/20 12:02:26;;;;;;;2.78;2.40;;;30.10;65.90;;;;;;6197881;28;20585;-77
2021/08/20 12:05:29;;;;;;;2.47;2.28;;;29.90;66.70;;;;;;6198002;28;20200;-77
2021/08/20 12:08:31;;;;;;;2.67;2.47;;;29.70;67.70;;;;;;6196748;28;20194;-77
2021/08/20 12:11:34;;;;;;;2.55;2.35;;;29.60;69.30;;;;;;6196305;28;20204;-77
2021/08/20 12:14:36;;;;;;;2.85;2.53;;;29.50;70.10;;;;;;6180429;28;20208;-77
2021/08/20 12:18:19;;;;;;;3.10;2.42;;;29.30;70.70;;;;;;6181439;28;20197;-77
2021/08/20 12:21:22;;;;;;;3.05;2.13;;;29.30;71.10;;;;;;6197685;28;20205;-77
2021/08/20 12:24:52;;;;;;;2.55;2.25;;;29.30;71.00;;;;;;6197227;28;20269;-77
2021/08/20 12:27:55;;;;;;;2.05;1.85;;;29.30;70.50;;;;;;6194543;28;20198;-77
2021/08/20 12:31:05;;;;;;;2.40;2.20;;;29.30;70.40;;;;;;6196199;28;20193;-77
2021/08/20 12:34:08;;;;;;;3.50;2.20;;;29.40;70.20;;;;;;6196113;28;20197;-77
2021/08/20 12:37:15;;;;;;;2.88;2.58;;;29.40;69.20;;;;;;6197573;28;20270;-77
2021/08/20 12:40:17;;;;;;;2.38;2.17;;;29.30;68.60;;;;;;6197166;28;20271;-76
2021/08/20 12:43:32;;;;;;;3.08;2.13;;;29.20;68.60;;;;;;6195862;28;20731;-77
2021/08/20 12:46:39;;;;;;;3.40;2.58;;;29.00;69.00;;;;;;6186605;28;20214;-76
2021/08/20 12:50:01;;;;;;;3.83;2.53;;;29.00;69.40;;;;;;6186199;28;20604;-77
2021/08/20 12:53:09;;;;;;;3.20;2.25;;;29.00;69.80;;;;;;6180015;28;20340;-76
2021/08/20 12:56:11;;;;;;;2.55;1.83;;;29.10;69.60;;;;;;6194871;28;20316;-77
2021/08/20 12:59:18;;;;;;;2.58;2.00;;;29.10;69.60;;;;;;6206706;28;20673;-76
2021/08/20 13:02:20;;;;;;;4.53;2.67;;;29.20;69.00;;;;;;6194139;28;20678;-75
2021/08/20 13:05:23;;;;;;;2.75;2.50;;;29.30;68.60;;;;;;6194801;28;20325;-76
2021/08/20 13:08:30;;;;;;;4.47;2.28;;;29.40;67.80;;;;;;6194873;28;20208;-75
2021/08/20 13:11:33;;;;;;;2.95;2.50;;;29.50;67.00;;;;;;6184922;28;20209;-75
2021/08/20 13:14:36;;;;;;;3.88;2.40;;;29.80;67.40;;;;;;6191134;28;20193;-76
2021/08/20 13:17:40;;;;;;;5.53;2.97;;;29.90;67.90;;;;;;6179650;28;20237;-75
2021/08/20 13:20:47;;;;;;;2.63;2.40;;;30.20;68.60;;;;;;6195021;28;20197;-77
2021/08/20 13:23:50;;;;;;;4.35;2.63;;;30.80;67.00;;;;;;6181292;28;20198;-77
2021/08/20 13:26:53;;;;;;;3.28;2.97;;;31.30;64.50;;;;;;6197535;28;20285;-77
2021/08/20 13:29:57;;;;;;;5.55;3.08;;;31.50;59.20;;;;;;6196307;28;20209;-78
2021/08/20 13:32:59;;;;;;;3.83;2.55;;;31.80;62.40;;;;;;6185841;28;20213;-77
2021/08/20 13:36:04;;;;;;;2.72;2.42;;;32.40;56.40;;;;;;6188463;28;20313;-77
2021/08/20 13:39:06;;;;;;;2.92;2.63;;;32.70;54.50;;;;;;6196811;28;20576;-78
2021/08/20 13:42:09;;;;;;;3.63;2.95;;;33.30;54.40;;;;;;6197658;28;20240;-77
2021/08/20 13:45:11;;;;;;;6.03;2.92;;;33.90;52.30;;;;;;6208578;28;20217;-78
2021/08/20 13:48:17;;;;;;;3.17;2.53;;;34.50;50.40;;;;;;6191188;28;20448;-77
2021/08/20 13:51:20;;;;;;;4.22;3.05;;;35.00;51.50;;;;;;6184596;28;20201;-77
2021/08/20 13:54:23;;;;;;;2.97;2.67;;;35.20;50.40;;;;;;6201261;28;20204;-77
2021/08/20 13:57:26;;;;;;;3.88;2.70;;;35.10;49.20;;;;;;6199946;28;20207;-77
2021/08/20 14:00:28;;;;;;;4.40;3.08;;;35.30;51.50;;;;;;6200151;28;20213;-77
2021/08/20 14:03:31;;;;;;;3.05;2.65;;;35.50;47.90;;;;;;6199444;28;20752;-77
2021/08/20 14:06:34;;;;;;;3.67;3.00;;;35.60;47.20;;;;;;6200165;28;20205;-77
2021/08/20 14:09:37;;;;;;;2.83;2.60;;;35.90;46.20;;;;;;6183001;28;20201;-77
2021/08/20 14:12:39;;;;;;;3.65;3.13;;;36.20;48.30;;;;;;6183569;28;20661;-78
2021/08/20 14:15:42;;;;;;;3.05;2.63;;;36.60;47.00;;;;;;6195415;28;20194;-78
2021/08/20 14:18:44;;;;;;;4.00;2.88;;;36.80;45.10;;;;;;6186322;28;20288;-77
2021/08/20 14:21:46;;;;;;;4.13;3.00;;;36.90;45.90;;;;;;6200419;28;20336;-78
2021/08/20 14:24:49;;;;;;;4.25;3.10;;;36.60;44.70;;;;;;6193802;28;20204;-78
2021/08/20 14:27:51;;;;;;;3.40;3.10;;;36.40;45.10;;;;;;6197640;28;20193;-77
2021/08/20 14:30:54;;;;;;;4.68;2.95;;;36.30;44.50;;;;;;6198346;28;20201;-77
2021/08/20 14:33:57;;;;;;;3.90;2.95;;;36.20;44.60;;;;;;6200055;28;20197;-77
2021/08/20 14:36:59;;;;;;;3.13;2.70;;;36.10;48.40;;;;;;6198957;28;20304;-77
2021/08/20 14:40:02;;;;;;;5.13;2.85;;;36.10;46.30;;;;;;6197843;28;20671;-77
2021/08/20 14:43:05;;;;;;;3.28;2.72;;;35.20;48.50;;;;;;6182433;28;20312;-77
2021/08/20 14:46:07;;;;;;;3.97;2.72;;;34.50;50.60;;;;;;6192431;28;20209;-77
2021/08/20 14:49:10;;;;;;;5.95;3.40;;;33.90;51.70;;;;;;6196266;28;20198;-77
2021/08/20 14:52:12;;;;;;;4.32;2.65;;;34.20;51.50;;;;;;6198570;28;20204;-77
2021/08/20 14:55:14;;;;;;;3.50;2.78;;;34.70;50.60;;;;;;6198232;28;20284;-77
2021/08/20 14:58:17;;;;;;;3.53;3.00;;;34.00;51.40;;;;;;6199933;28;20189;-77
2021/08/20 15:01:20;;;;;;;6.03;3.40;;;34.00;51.40;;;;;;6199104;28;20247;-77
2021/08/20 15:04:22;;;;;;;2.75;2.55;;;34.70;49.80;;;;;;6199566;28;20256;-77
2021/08/20 15:07:26;;;;;;;3.30;2.85;;;34.70;50.50;;;;;;6198387;28;20688;-77
2021/08/20 15:10:29;;;;;;;4.20;2.92;;;34.30;50.30;;;;;;6189935;28;20553;-77
2021/08/20 15:13:31;;;;;;;2.88;2.60;;;34.20;50.80;;;;;;6175839;28;20309;-77
2021/08/20 15:16:34;;;;;;;2.90;2.70;;;34.60;50.00;;;;;;6194764;28;20197;-77
2021/08/20 15:19:36;;;;;;;3.92;2.85;;;35.20;50.10;;;;;;6197903;28;20665;-77
2021/08/20 15:22:39;;;;;;;4.72;2.80;;;35.80;48.40;;;;;;6197518;28;20248;-77
2021/08/20 15:25:42;;;;;;;4.10;2.75;;;36.10;48.90;;;;;;6198973;28;20638;-77
2021/08/20 15:28:45;;;;;;;5.45;2.85;;;36.30;48.30;;;;;;6199050;28;20224;-77
2021/08/20 15:31:48;;;;;;;4.07;2.58;;;36.40;47.80;;;;;;6197065;28;20201;-77
2021/08/20 15:34:50;;;;;;;2.97;2.70;;;36.50;46.80;;;;;;6197777;28;20224;-77
2021/08/20 15:37:56;;;;;;;3.30;2.70;;;36.60;46.70;;;;;;6198302;28;20248;-77
2021/08/20 15:41:00;;;;;;;5.85;2.90;;;36.70;47.40;;;;;;6197291;28;20202;-77
2021/08/20 15:44:03;;;;;;;3.10;2.80;;;36.00;48.10;;;;;;6197462;28;20202;-77
2021/08/20 15:47:06;;;;;;;5.32;3.10;;;34.60;49.60;;;;;;6180853;28;20284;-77
2021/08/20 15:50:09;;;;;;;4.28;3.08;;;32.90;52.00;;;;;;6198640;28;20201;-77
2021/08/20 15:53:13;;;;;;;8.15;3.63;;;31.50;54.10;;;;;;6196569;28;20212;-77
2021/08/20 15:56:18;;;;;;;3.17;2.88;;;30.40;56.30;;;;;;6181019;28;20550;-76
2021/08/20 15:59:20;;;;;;;3.63;2.75;;;29.40;58.40;;;;;;6196435;28;20185;-77
2021/08/20 16:02:22;;;;;;;6.63;2.95;;;28.40;60.80;;;;;;6180777;28;20219;-76
2021/08/20 16:05:25;;;;;;;6.88;2.70;;;27.60;63.30;;;;;;6197939;28;20193;-76